Time;durP1;ratioP1;P1;durP2;ratioP2;P2;SDS_P1;SDS_P2;PMS_P1;PMS_P2;Temp;Humidity;BMP_temperature;BMP_pressure;BME280_temperature;BME280_humidity;BME280_pressure;Samples;Min_cycle;Max_cycle;Signal;HPM_P1;HPM_P2
2024/01/13 00:00:36;;;;;;;80.83;25.13;;;-4.30;99.90;;;;;;5111715;27;20179;-64
2024/01/13 00:03:02;;;;;;;77.30;25.23;;;-4.30;99.90;;;;;;5115768;27;20195;-63
2024/01/13 00:05:27;;;;;;;76.33;24.80;;;-4.30;99.90;;;;;;5114846;27;20180;-63
2024/01/13 00:07:53;;;;;;;77.83;24.27;;;-4.20;99.90;;;;;;5124796;27;20298;-63
2024/01/13 00:10:18;;;;;;;78.80;26.27;;;-4.20;99.90;;;;;;5126529;27;20194;-63
2024/01/13 00:12:44;;;;;;;71.83;26.83;;;-4.20;99.90;;;;;;5111899;27;20195;-65
2024/01/13 00:15:09;;;;;;;64.67;26.07;;;-4.20;99.90;;;;;;5109904;27;20176;-64
2024/01/13 00:17:35;;;;;;;84.23;28.97;;;-4.20;99.90;;;;;;5117430;27;20183;-65
2024/01/13 00:20:00;;;;;;;72.40;26.10;;;-4.10;99.90;;;;;;5117115;27;20187;-65
2024/01/13 00:22:26;;;;;;;77.33;27.60;;;-4.10;99.90;;;;;;5123425;27;20265;-65
2024/01/13 00:24:51;;;;;;;77.20;27.50;;;-4.10;99.90;;;;;;5109012;27;20187;-65
2024/01/13 00:27:17;;;;;;;73.27;27.00;;;-4.00;99.90;;;;;;5112839;28;20237;-64
2024/01/13 00:29:43;;;;;;;75.60;27.03;;;-4.00;99.90;;;;;;5115613;27;20171;-65
2024/01/13 00:32:08;;;;;;;85.07;26.33;;;-4.00;99.90;;;;;;5115249;27;20408;-65
2024/01/13 00:34:34;;;;;;;64.10;26.37;;;-3.90;99.90;;;;;;5116978;27;20198;-65
2024/01/13 00:36:59;;;;;;;82.63;28.07;;;-4.00;99.90;;;;;;5114044;27;20196;-65
2024/01/13 00:39:25;;;;;;;64.87;26.30;;;-4.00;99.90;;;;;;5115179;27;20278;-65
2024/01/13 00:41:50;;;;;;;73.67;25.23;;;-3.90;99.90;;;;;;5121562;27;20202;-64
2024/01/13 00:44:16;;;;;;;101.07;26.33;;;-3.90;99.90;;;;;;5114791;27;20228;-65
2024/01/13 00:46:41;;;;;;;62.27;23.53;;;-3.90;99.90;;;;;;5115515;27;20207;-65
2024/01/13 00:49:07;;;;;;;54.67;23.07;;;-4.00;99.90;;;;;;5114497;27;20195;-65
2024/01/13 00:51:33;;;;;;;74.73;24.50;;;-4.10;99.90;;;;;;5113743;27;20266;-65
2024/01/13 00:54:06;;;;;;;68.43;24.60;;;-4.10;99.90;;;;;;5112504;28;20190;-65
2024/01/13 00:56:32;;;;;;;72.33;25.10;;;-4.20;99.90;;;;;;5121409;27;20442;-65
2024/01/13 00:58:58;;;;;;;66.10;27.50;;;-4.00;99.90;;;;;;5123469;27;20454;-64
2024/01/13 01:01:23;;;;;;;66.23;25.43;;;-4.10;99.90;;;;;;5118272;27;20426;-65
2024/01/13 01:03:48;;;;;;;69.90;22.87;;;-4.00;99.90;;;;;;5112390;27;20593;-64
2024/01/13 01:06:14;;;;;;;66.30;22.87;;;-4.00;99.90;;;;;;5123234;27;20214;-65
2024/01/13 01:08:40;;;;;;;55.20;22.10;;;-4.00;99.90;;;;;;5115700;27;20191;-63
2024/01/13 01:11:06;;;;;;;60.23;24.27;;;-4.00;99.90;;;;;;5127222;27;20183;-63
2024/01/13 01:13:31;;;;;;;89.20;23.43;;;-4.10;99.90;;;;;;5112403;28;20194;-65
2024/01/13 01:15:57;;;;;;;63.73;23.53;;;-4.10;99.90;;;;;;5112987;27;20431;-65
2024/01/13 01:18:22;;;;;;;57.37;23.30;;;-4.00;99.90;;;;;;5103804;28;20617;-65
2024/01/13 01:20:48;;;;;;;66.20;22.53;;;-4.10;99.90;;;;;;5114527;27;20188;-64
2024/01/13 01:23:13;;;;;;;70.43;25.77;;;-4.20;99.90;;;;;;5118695;27;20183;-65
2024/01/13 01:25:38;;;;;;;58.70;22.17;;;-4.20;99.90;;;;;;5113941;27;20220;-65
2024/01/13 01:28:04;;;;;;;59.50;22.83;;;-4.10;99.90;;;;;;5111726;27;20675;-65
2024/01/13 01:30:29;;;;;;;73.53;24.70;;;-4.10;99.90;;;;;;5122858;27;20175;-65
2024/01/13 01:32:55;;;;;;;57.83;24.60;;;-4.10;99.90;;;;;;5112290;28;20198;-65
2024/01/13 01:35:20;;;;;;;60.60;23.23;;;-4.00;99.90;;;;;;5121615;27;20540;-64
2024/01/13 01:37:46;;;;;;;62.63;23.33;;;-4.10;99.90;;;;;;5119984;27;20282;-65
2024/01/13 01:40:15;;;;;;;61.13;24.93;;;-4.10;99.90;;;;;;5117093;27;20191;-65
2024/01/13 01:42:40;;;;;;;64.00;23.03;;;-4.10;99.90;;;;;;5125944;27;20228;-65
2024/01/13 01:45:07;;;;;;;71.40;26.43;;;-4.10;99.90;;;;;;5117127;27;20468;-64
2024/01/13 01:47:33;;;;;;;66.83;23.90;;;-4.10;99.90;;;;;;5111814;27;20207;-64
2024/01/13 01:49:59;;;;;;;66.67;24.17;;;-4.10;99.90;;;;;;5103158;28;21150;-64
2024/01/13 01:52:26;;;;;;;70.07;23.77;;;-4.10;99.90;;;;;;5121884;27;20409;-64
2024/01/13 01:54:52;;;;;;;74.53;26.00;;;-4.10;99.90;;;;;;5110665;27;20421;-65
2024/01/13 01:57:20;;;;;;;55.70;22.30;;;-4.20;99.90;;;;;;5113937;27;20516;-65
2024/01/13 01:59:46;;;;;;;63.90;24.47;;;-4.10;99.90;;;;;;5109986;28;20232;-65
2024/01/13 02:02:11;;;;;;;59.00;22.63;;;-4.10;99.90;;;;;;5111899;28;20870;-65
2024/01/13 02:04:37;;;;;;;60.47;21.60;;;-4.00;99.90;;;;;;5111708;28;20575;-64
2024/01/13 02:07:03;;;;;;;69.57;25.10;;;-4.00;99.90;;;;;;5112690;28;20242;-65
2024/01/13 02:09:29;;;;;;;59.73;22.83;;;-4.10;99.90;;;;;;5118294;28;20190;-65
2024/01/13 02:11:55;;;;;;;77.40;23.93;;;-4.00;99.90;;;;;;5113171;28;20207;-65
2024/01/13 02:14:20;;;;;;;69.23;21.47;;;-4.10;99.90;;;;;;5108660;28;20909;-63
2024/01/13 02:16:46;;;;;;;72.40;25.80;;;-4.10;99.90;;;;;;5117621;28;20230;-63
2024/01/13 02:19:12;;;;;;;65.83;21.60;;;-4.10;99.90;;;;;;5112185;28;20227;-65
2024/01/13 02:21:38;;;;;;;65.50;23.10;;;-4.20;99.90;;;;;;5113238;28;20453;-65
2024/01/13 02:24:04;;;;;;;76.13;23.77;;;-4.20;99.90;;;;;;5115720;28;20225;-64
2024/01/13 02:26:33;;;;;;;47.67;22.10;;;-4.30;99.90;;;;;;5111274;28;20472;-65
2024/01/13 02:28:59;;;;;;;58.83;21.47;;;-4.30;99.90;;;;;;5114106;28;20417;-65
2024/01/13 02:31:24;;;;;;;54.97;20.67;;;-4.40;99.90;;;;;;5111634;28;20463;-65
2024/01/13 02:33:51;;;;;;;62.03;20.43;;;-4.50;99.90;;;;;;5119544;28;20174;-65
2024/01/13 02:36:16;;;;;;;70.53;21.00;;;-4.50;99.90;;;;;;5113302;28;20184;-65
2024/01/13 02:38:42;;;;;;;59.87;23.87;;;-4.50;99.90;;;;;;5110617;28;20448;-65
2024/01/13 02:41:07;;;;;;;67.17;25.30;;;-4.40;99.90;;;;;;5105270;28;20196;-64
2024/01/13 02:43:33;;;;;;;70.43;23.30;;;-4.40;99.90;;;;;;5112171;28;20699;-64
2024/01/13 02:45:58;;;;;;;58.30;22.93;;;-4.40;99.90;;;;;;5111755;28;20222;-65
2024/01/13 02:48:24;;;;;;;71.67;23.67;;;-4.50;99.90;;;;;;5114295;28;20612;-65
2024/01/13 02:50:55;;;;;;;63.80;20.90;;;-4.40;99.90;;;;;;5117178;28;20625;-64
2024/01/13 02:53:21;;;;;;;69.63;25.00;;;-4.40;99.90;;;;;;5116719;28;20423;-65
2024/01/13 02:55:46;;;;;;;61.20;21.43;;;-4.40;99.90;;;;;;5103191;28;21122;-64
2024/01/13 02:58:12;;;;;;;69.00;25.80;;;-4.50;99.90;;;;;;5110930;28;20415;-64
2024/01/13 03:00:38;;;;;;;58.53;22.47;;;-4.50;99.90;;;;;;5113087;28;20715;-65
2024/01/13 03:03:03;;;;;;;77.73;24.47;;;-4.40;99.90;;;;;;5114512;27;20260;-65
2024/01/13 03:05:29;;;;;;;63.97;22.10;;;-4.30;99.90;;;;;;5113155;27;20213;-64
2024/01/13 03:07:54;;;;;;;70.87;23.40;;;-4.40;99.90;;;;;;5107188;27;20216;-63
2024/01/13 03:10:20;;;;;;;64.67;22.50;;;-4.40;99.90;;;;;;5115045;27;20176;-63
2024/01/13 03:12:45;;;;;;;82.03;23.00;;;-4.30;99.90;;;;;;5120207;27;20191;-65
2024/01/13 03:15:11;;;;;;;55.83;21.70;;;-4.40;99.90;;;;;;5116230;27;20198;-65
2024/01/13 03:17:36;;;;;;;47.93;21.23;;;-4.40;99.90;;;;;;5115007;27;20723;-64
2024/01/13 03:20:02;;;;;;;63.37;22.77;;;-4.40;99.90;;;;;;5115241;27;20200;-65
2024/01/13 03:22:28;;;;;;;59.00;21.20;;;-4.00;99.90;;;;;;5116930;27;20271;-65
2024/01/13 03:24:53;;;;;;;105.23;25.17;;;-4.50;99.90;;;;;;5113833;27;20542;-64
2024/01/13 03:27:19;;;;;;;67.67;23.57;;;-4.70;99.90;;;;;;5115384;27;20215;-65
2024/01/13 03:29:44;;;;;;;54.47;21.57;;;-4.60;99.90;;;;;;5115713;27;20179;-64
2024/01/13 03:32:10;;;;;;;70.50;21.20;;;-4.60;99.90;;;;;;5119924;27;20565;-64
2024/01/13 03:34:35;;;;;;;57.93;23.47;;;-4.60;99.90;;;;;;5119069;27;20179;-64
2024/01/13 03:37:01;;;;;;;62.27;23.57;;;-4.60;99.90;;;;;;5111508;27;20183;-64
2024/01/13 03:39:26;;;;;;;68.33;25.63;;;-4.60;99.90;;;;;;5113865;27;20729;-64
2024/01/13 03:41:52;;;;;;;70.80;21.60;;;-4.60;99.90;;;;;;5115519;27;20266;-64
2024/01/13 03:44:17;;;;;;;77.70;23.83;;;-4.80;99.90;;;;;;5114575;28;20220;-64
2024/01/13 03:46:43;;;;;;;69.57;23.80;;;-4.80;99.90;;;;;;5117489;27;20250;-64
2024/01/13 03:49:08;;;;;;;67.90;23.57;;;-4.80;99.90;;;;;;5113751;27;20255;-64
2024/01/13 03:51:34;;;;;;;75.53;23.33;;;-4.80;99.90;;;;;;5117218;27;20182;-64
2024/01/13 03:53:59;;;;;;;62.40;24.03;;;-4.90;99.90;;;;;;5118747;27;20186;-64
2024/01/13 03:56:25;;;;;;;64.70;20.60;;;-4.90;99.90;;;;;;5111057;27;20608;-64
2024/01/13 03:58:50;;;;;;;57.23;22.37;;;-4.80;99.90;;;;;;5112471;28;20266;-64
2024/01/13 04:01:16;;;;;;;61.40;23.13;;;-4.80;99.90;;;;;;5113489;28;20205;-64
2024/01/13 04:03:41;;;;;;;71.80;21.20;;;-4.80;99.90;;;;;;5105290;28;20242;-63
2024/01/13 04:06:07;;;;;;;73.07;21.43;;;-4.80;99.90;;;;;;5115046;27;20187;-63
2024/01/13 04:08:33;;;;;;;64.20;22.27;;;-4.80;99.90;;;;;;5116427;27;20220;-63
2024/01/13 04:10:58;;;;;;;52.40;20.53;;;-4.80;99.90;;;;;;5114887;27;20616;-63
2024/01/13 04:13:24;;;;;;;66.63;22.63;;;-4.80;99.90;;;;;;5121314;27;20456;-65
2024/01/13 04:15:49;;;;;;;66.43;23.33;;;-4.80;99.90;;;;;;5122973;27;20267;-64
2024/01/13 04:18:15;;;;;;;71.43;24.57;;;-4.80;99.90;;;;;;5112923;28;20580;-63
2024/01/13 04:20:40;;;;;;;72.57;25.00;;;-4.80;99.90;;;;;;5119884;27;20816;-63
2024/01/13 04:23:06;;;;;;;88.20;23.23;;;-4.80;99.90;;;;;;5118017;27;20263;-64
2024/01/13 04:25:32;;;;;;;70.43;23.60;;;-4.20;99.90;;;;;;5114553;27;20632;-64
2024/01/13 04:28:00;;;;;;;78.33;23.53;;;-4.80;99.90;;;;;;5117605;27;20206;-64
2024/01/13 04:30:26;;;;;;;72.80;25.50;;;-4.70;99.90;;;;;;5105295;28;20425;-64
2024/01/13 04:32:51;;;;;;;77.80;25.50;;;-4.60;99.90;;;;;;5113420;28;21169;-64
2024/01/13 04:35:17;;;;;;;69.67;25.63;;;-4.60;99.90;;;;;;5113979;28;20597;-65
2024/01/13 04:37:42;;;;;;;87.17;26.50;;;-4.50;99.90;;;;;;5113506;28;20195;-64
2024/01/13 04:40:08;;;;;;;67.33;25.17;;;-4.50;99.90;;;;;;5118891;27;20187;-65
2024/01/13 04:42:34;;;;;;;51.17;21.37;;;-4.50;99.90;;;;;;5121742;27;20263;-65
2024/01/13 04:44:59;;;;;;;57.13;21.97;;;-4.40;99.90;;;;;;5120968;27;20690;-64
2024/01/13 04:47:25;;;;;;;62.50;22.03;;;-4.50;99.90;;;;;;5133868;27;20954;-64
2024/01/13 04:49:50;;;;;;;86.43;25.37;;;-4.60;99.90;;;;;;5112904;27;20274;-64
2024/01/13 04:52:16;;;;;;;71.37;20.63;;;-4.60;99.90;;;;;;5118105;27;20254;-64
2024/01/13 04:54:41;;;;;;;63.27;23.33;;;-4.80;99.90;;;;;;5116325;27;20183;-65
2024/01/13 04:57:07;;;;;;;67.80;24.13;;;-4.90;99.90;;;;;;5105398;28;20199;-64
2024/01/13 04:59:32;;;;;;;74.27;23.50;;;-4.90;99.90;;;;;;5112867;28;20236;-63
2024/01/13 05:01:58;;;;;;;78.20;20.70;;;-4.90;99.90;;;;;;5112881;28;20214;-62
2024/01/13 05:04:23;;;;;;;72.00;23.07;;;-4.30;99.90;;;;;;5120509;27;20179;-64
2024/01/13 05:06:49;;;;;;;75.37;22.00;;;-4.90;99.90;;;;;;5122296;27;20203;-64
2024/01/13 05:09:15;;;;;;;66.13;24.80;;;-4.80;99.90;;;;;;5117100;27;20232;-63
2024/01/13 05:11:40;;;;;;;72.67;25.50;;;-4.70;99.90;;;;;;5121565;27;20878;-63
2024/01/13 05:14:06;;;;;;;67.93;23.40;;;-4.60;99.90;;;;;;5111318;28;20183;-63
2024/01/13 05:16:32;;;;;;;63.93;22.87;;;-4.60;99.90;;;;;;5112940;28;20182;-63
2024/01/13 05:18:57;;;;;;;61.80;22.50;;;-4.70;99.90;;;;;;5112158;28;20632;-63
2024/01/13 05:21:23;;;;;;;62.53;23.13;;;-4.60;99.90;;;;;;5112841;28;20429;-63
2024/01/13 05:23:49;;;;;;;89.83;24.73;;;-4.60;99.90;;;;;;5117381;27;20187;-65
2024/01/13 05:26:14;;;;;;;68.97;23.30;;;-4.60;99.90;;;;;;5122878;27;20239;-64
2024/01/13 05:28:40;;;;;;;66.60;23.67;;;-4.60;99.90;;;;;;5112528;28;20178;-63
2024/01/13 05:31:05;;;;;;;74.23;22.80;;;-4.60;99.90;;;;;;5112793;28;20178;-62
2024/01/13 05:33:31;;;;;;;74.37;23.77;;;-4.20;99.90;;;;;;5120197;27;20203;-64
2024/01/13 05:35:56;;;;;;;66.73;23.30;;;-4.60;99.90;;;;;;5124040;27;20179;-64
2024/01/13 05:38:22;;;;;;;65.80;22.40;;;-4.70;99.90;;;;;;5133151;27;20187;-62
2024/01/13 05:40:48;;;;;;;61.80;21.83;;;-4.80;99.90;;;;;;5115171;27;20180;-62
2024/01/13 05:43:13;;;;;;;66.07;22.63;;;-4.70;99.90;;;;;;5112361;28;20190;-64
2024/01/13 05:45:39;;;;;;;66.60;24.77;;;-4.70;99.90;;;;;;5123273;27;20456;-65
2024/01/13 05:48:05;;;;;;;78.57;25.40;;;-4.80;99.90;;;;;;5114725;27;20210;-64
2024/01/13 05:50:30;;;;;;;91.70;23.60;;;-4.80;99.90;;;;;;5118937;27;20600;-64
2024/01/13 05:52:56;;;;;;;69.80;22.23;;;-4.90;99.90;;;;;;5107515;28;20184;-64
2024/01/13 05:55:22;;;;;;;69.73;26.70;;;-4.90;99.90;;;;;;5112455;28;20591;-64
2024/01/13 05:57:47;;;;;;;77.47;24.53;;;-4.80;99.90;;;;;;5112026;28;20188;-64
2024/01/13 06:00:13;;;;;;;85.07;25.03;;;-4.80;99.90;;;;;;5112278;28;20191;-64
2024/01/13 06:02:39;;;;;;;73.30;24.23;;;-4.80;99.90;;;;;;5111200;28;20179;-64
2024/01/13 06:05:06;;;;;;;74.50;24.43;;;-4.60;99.90;;;;;;5111750;28;20184;-64
2024/01/13 06:07:32;;;;;;;71.03;23.20;;;-4.70;99.90;;;;;;5110683;28;20191;-64
2024/01/13 06:09:57;;;;;;;83.73;26.53;;;-4.70;99.90;;;;;;5110779;28;20431;-64
2024/01/13 06:12:23;;;;;;;86.77;27.40;;;-4.70;99.90;;;;;;5116371;28;20192;-64
2024/01/13 06:14:48;;;;;;;85.97;24.70;;;-4.70;99.90;;;;;;5111463;28;20862;-62
2024/01/13 06:17:14;;;;;;;96.53;28.00;;;-4.70;99.90;;;;;;5115182;28;20179;-62
2024/01/13 06:19:39;;;;;;;84.43;28.00;;;-4.60;99.90;;;;;;5113453;28;20197;-63
2024/01/13 06:22:05;;;;;;;78.63;25.83;;;-4.60;99.90;;;;;;5114159;28;20928;-63
2024/01/13 06:24:30;;;;;;;72.50;23.33;;;-4.50;99.90;;;;;;5118558;28;20207;-64
2024/01/13 06:26:56;;;;;;;72.20;25.73;;;-4.40;99.90;;;;;;5124934;28;20298;-64
2024/01/13 06:29:21;;;;;;;97.10;24.40;;;-4.50;99.90;;;;;;5115798;28;20651;-64
2024/01/13 06:31:47;;;;;;;90.27;29.03;;;-4.40;99.90;;;;;;5115581;28;20228;-64
2024/01/13 06:34:12;;;;;;;92.60;29.37;;;-4.40;99.90;;;;;;5120433;27;20188;-64
2024/01/13 06:36:38;;;;;;;101.50;27.40;;;-4.40;99.90;;;;;;5133185;27;20228;-64
2024/01/13 06:39:04;;;;;;;76.73;25.37;;;-4.40;99.90;;;;;;5115400;28;20183;-64
2024/01/13 06:41:30;;;;;;;87.37;25.57;;;-4.40;99.90;;;;;;5117822;27;20186;-64
2024/01/13 06:43:56;;;;;;;77.03;25.63;;;-4.50;99.90;;;;;;5124231;27;20469;-64
2024/01/13 06:46:21;;;;;;;91.23;27.90;;;-4.50;99.90;;;;;;5124574;27;20684;-64
2024/01/13 06:48:47;;;;;;;81.97;28.10;;;-4.50;99.90;;;;;;5111262;28;20199;-64
2024/01/13 06:51:13;;;;;;;82.20;27.40;;;-4.40;99.90;;;;;;5115275;27;20187;-64
2024/01/13 06:53:39;;;;;;;63.27;24.40;;;-4.50;99.90;;;;;;5115067;28;20262;-64
2024/01/13 06:56:04;;;;;;;74.43;25.40;;;-4.40;99.90;;;;;;5100871;28;20570;-64
2024/01/13 06:58:30;;;;;;;76.10;25.90;;;-4.30;99.90;;;;;;5114865;28;20198;-64
2024/01/13 07:00:55;;;;;;;79.53;25.93;;;-4.30;99.90;;;;;;5129285;27;20171;-64
2024/01/13 07:03:21;;;;;;;74.67;25.50;;;-4.30;99.90;;;;;;5115122;28;20274;-64
2024/01/13 07:05:46;;;;;;;58.47;22.27;;;-4.30;99.90;;;;;;5117668;27;20202;-64
2024/01/13 07:08:12;;;;;;;65.50;23.00;;;-4.40;99.90;;;;;;5135857;27;20286;-64
2024/01/13 07:10:37;;;;;;;60.93;23.70;;;-3.70;99.90;;;;;;5119048;27;20655;-64
2024/01/13 07:13:03;;;;;;;71.13;22.50;;;-4.30;99.90;;;;;;5097325;28;20212;-64
2024/01/13 07:15:28;;;;;;;86.73;25.70;;;-4.30;99.90;;;;;;5115711;27;20198;-64
2024/01/13 07:17:54;;;;;;;66.90;24.20;;;-4.30;99.90;;;;;;5111198;28;20200;-64
2024/01/13 07:20:19;;;;;;;58.97;21.30;;;-4.30;99.90;;;;;;5111832;27;20607;-64
2024/01/13 07:22:45;;;;;;;57.03;19.40;;;-4.40;99.90;;;;;;5136012;27;20187;-64
2024/01/13 07:25:10;;;;;;;43.13;16.47;;;-4.30;99.90;;;;;;5120118;27;20684;-64
2024/01/13 07:27:36;;;;;;;49.77;15.33;;;-4.30;99.90;;;;;;5112855;28;20195;-64
2024/01/13 07:30:04;;;;;;;42.63;14.80;;;-4.40;99.90;;;;;;5110404;27;20268;-65
2024/01/13 07:32:29;;;;;;;35.40;13.00;;;-4.40;99.90;;;;;;5127421;27;20187;-63
2024/01/13 07:34:55;;;;;;;40.10;14.47;;;-4.40;99.90;;;;;;5127884;27;20405;-62
2024/01/13 07:37:20;;;;;;;31.77;13.47;;;-4.50;99.90;;;;;;5106317;28;20180;-62
2024/01/13 07:39:46;;;;;;;50.53;15.67;;;-4.50;99.90;;;;;;5114792;28;20688;-65
2024/01/13 07:42:11;;;;;;;37.00;13.87;;;-4.50;99.90;;;;;;5106132;28;20184;-64
2024/01/13 07:44:37;;;;;;;29.23;10.87;;;-4.60;99.90;;;;;;5107396;28;20228;-64
2024/01/13 07:47:03;;;;;;;27.13;10.50;;;-4.50;99.90;;;;;;5107520;28;20246;-64
2024/01/13 07:49:29;;;;;;;26.77;9.40;;;-4.50;99.90;;;;;;5117051;27;20618;-64
2024/01/13 07:51:56;;;;;;;31.90;11.97;;;-4.50;99.90;;;;;;5114396;28;20509;-64
2024/01/13 07:54:22;;;;;;;30.97;12.60;;;-4.40;99.90;;;;;;5111746;28;20508;-64
2024/01/13 07:56:49;;;;;;;30.50;10.80;;;-4.30;99.90;;;;;;5113793;28;20475;-64
2024/01/13 07:59:16;;;;;;;23.80;8.80;;;-4.40;99.90;;;;;;5116721;27;20452;-64
2024/01/13 08:01:42;;;;;;;28.00;11.10;;;-4.40;99.90;;;;;;5135268;27;20421;-65
2024/01/13 08:04:07;;;;;;;39.00;13.23;;;-4.30;99.90;;;;;;5117977;27;20471;-64
2024/01/13 08:06:33;;;;;;;30.40;13.00;;;-4.30;99.90;;;;;;5123630;27;20199;-64
2024/01/13 08:08:59;;;;;;;38.30;12.90;;;-4.20;99.90;;;;;;5113432;27;20191;-64
2024/01/13 08:11:24;;;;;;;39.83;13.63;;;-4.20;99.90;;;;;;5101341;28;20181;-65
2024/01/13 08:13:50;;;;;;;38.93;15.13;;;-4.30;99.90;;;;;;5112740;27;20187;-64
2024/01/13 08:16:15;;;;;;;46.07;16.10;;;-4.20;99.90;;;;;;5125172;27;20188;-64
2024/01/13 08:18:41;;;;;;;27.07;11.07;;;-4.20;99.90;;;;;;5127512;27;20671;-65
2024/01/13 08:21:07;;;;;;;27.13;11.10;;;-4.20;99.90;;;;;;5114226;28;20182;-64
2024/01/13 08:23:33;;;;;;;27.57;9.97;;;-4.20;99.90;;;;;;5114045;28;20187;-64
2024/01/13 08:25:59;;;;;;;23.23;10.97;;;-4.20;99.90;;;;;;5109338;27;20278;-65
2024/01/13 08:28:25;;;;;;;30.20;11.77;;;-4.20;99.90;;;;;;5110587;27;20524;-64
2024/01/13 08:30:50;;;;;;;30.80;11.00;;;-4.30;99.90;;;;;;5112940;28;20865;-64
2024/01/13 08:33:16;;;;;;;43.30;11.60;;;-4.30;99.90;;;;;;5114452;27;20184;-64
2024/01/13 08:35:41;;;;;;;43.80;13.87;;;-4.20;99.90;;;;;;5132796;27;20255;-64
2024/01/13 08:38:07;;;;;;;44.97;15.70;;;-4.20;99.90;;;;;;5104244;27;20207;-64
2024/01/13 08:40:32;;;;;;;41.83;15.07;;;-4.10;99.90;;;;;;5116673;27;21085;-64
2024/01/13 08:43:00;;;;;;;50.57;14.43;;;-4.00;99.90;;;;;;5114580;27;20183;-62
2024/01/13 08:45:29;;;;;;;56.50;15.70;;;-4.10;99.90;;;;;;5103549;28;20332;-62
2024/01/13 08:47:56;;;;;;;29.70;12.40;;;-4.20;99.90;;;;;;5127267;27;20487;-64
2024/01/13 08:50:22;;;;;;;30.20;11.60;;;-4.10;99.90;;;;;;5123274;27;20421;-64
2024/01/13 08:52:51;;;;;;;27.83;11.10;;;-4.00;99.90;;;;;;5113739;27;20463;-64
2024/01/13 08:55:17;;;;;;;29.67;11.10;;;-4.00;99.90;;;;;;5101762;27;20180;-64
2024/01/13 08:57:42;;;;;;;32.13;12.40;;;-2.60;99.90;;;;;;5107246;28;20422;-64
2024/01/13 09:00:08;;;;;;;25.40;10.17;;;-3.80;99.90;;;;;;5102880;28;20195;-64
2024/01/13 09:02:34;;;;;;;24.13;10.93;;;-3.90;99.90;;;;;;5115758;27;20178;-62
2024/01/13 09:04:59;;;;;;;23.77;9.47;;;-3.90;99.90;;;;;;5105320;27;20440;-62
2024/01/13 09:07:25;;;;;;;32.60;12.40;;;-4.00;99.90;;;;;;5119231;27;20210;-62
2024/01/13 09:09:51;;;;;;;26.63;11.10;;;-3.90;99.90;;;;;;5123801;27;20200;-65
2024/01/13 09:12:17;;;;;;;26.13;8.03;;;-3.80;99.90;;;;;;5112833;28;20186;-64
2024/01/13 09:14:45;;;;;;;20.70;9.40;;;-3.80;99.90;;;;;;5112825;27;20418;-64
2024/01/13 09:17:11;;;;;;;24.30;9.73;;;-3.70;99.90;;;;;;5112556;28;20194;-65
2024/01/13 09:19:37;;;;;;;48.87;13.90;;;-3.80;99.90;;;;;;5112359;28;20456;-64
2024/01/13 09:22:03;;;;;;;33.67;13.13;;;-3.90;99.90;;;;;;5116043;27;20452;-64
2024/01/13 09:24:28;;;;;;;33.37;13.90;;;-4.00;99.90;;;;;;5123522;27;20254;-65
2024/01/13 09:26:55;;;;;;;31.93;11.50;;;-3.90;99.90;;;;;;5112175;28;20703;-65
2024/01/13 09:29:21;;;;;;;31.87;11.00;;;-3.90;99.90;;;;;;5117602;27;20206;-64
2024/01/13 09:31:46;;;;;;;18.67;8.17;;;-3.80;99.90;;;;;;5110721;27;21080;-64
2024/01/13 09:34:12;;;;;;;22.83;8.47;;;-3.90;99.90;;;;;;5123164;27;20194;-64
2024/01/13 09:36:37;;;;;;;22.27;8.93;;;-3.80;99.90;;;;;;5112768;28;20263;-64
2024/01/13 09:39:03;;;;;;;19.40;8.00;;;-3.70;99.90;;;;;;5112410;28;20186;-64
2024/01/13 09:41:29;;;;;;;39.17;8.70;;;-3.90;99.90;;;;;;5112689;28;20754;-64
2024/01/13 09:44:18;;;;;;;23.63;8.47;;;-3.90;99.90;;;;;;5112263;28;20243;-64
2024/01/13 09:46:44;;;;;;;19.27;7.67;;;-3.90;99.90;;;;;;5123304;27;20861;-65
2024/01/13 09:49:12;;;;;;;29.47;8.77;;;-3.90;99.90;;;;;;5119192;27;20417;-65
2024/01/13 09:51:38;;;;;;;14.43;7.10;;;-4.00;99.90;;;;;;5112120;28;20262;-65
2024/01/13 09:54:10;;;;;;;21.33;7.67;;;-3.80;99.90;;;;;;5111869;28;20417;-63
2024/01/13 09:56:44;;;;;;;18.53;8.27;;;-3.80;99.90;;;;;;5103381;28;20421;-63
2024/01/13 09:59:09;;;;;;;17.57;8.13;;;-3.80;99.90;;;;;;5113375;27;20843;-64
2024/01/13 10:01:36;;;;;;;20.63;7.97;;;-3.80;99.90;;;;;;5123969;27;20449;-65
2024/01/13 10:04:02;;;;;;;20.83;8.80;;;-3.70;99.90;;;;;;5113812;28;20632;-65
2024/01/13 10:06:30;;;;;;;24.10;9.20;;;-2.50;99.90;;;;;;5124150;27;20461;-65
2024/01/13 10:08:56;;;;;;;25.80;9.63;;;-3.70;99.90;;;;;;5112334;28;20183;-65
2024/01/13 10:11:21;;;;;;;25.90;10.27;;;-3.60;99.90;;;;;;5111889;28;20425;-65
2024/01/13 10:14:04;;;;;;;24.57;8.30;;;-3.50;99.90;;;;;;5109978;28;20190;-65
2024/01/13 10:16:31;;;;;;;17.17;7.93;;;-3.40;99.90;;;;;;5117143;28;20199;-64
2024/01/13 10:19:01;;;;;;;22.30;8.07;;;-3.50;99.90;;;;;;5106044;28;20422;-65
2024/01/13 10:21:27;;;;;;;21.13;8.30;;;-3.50;99.90;;;;;;5111603;28;20498;-64
2024/01/13 10:23:57;;;;;;;26.03;8.83;;;-3.40;99.90;;;;;;5125829;28;21001;-64
2024/01/13 10:26:27;;;;;;;18.93;9.10;;;-3.50;99.90;;;;;;5099757;28;20243;-63
2024/01/13 10:28:54;;;;;;;22.23;9.10;;;-3.40;99.90;;;;;;5101714;28;20429;-63
2024/01/13 10:31:20;;;;;;;25.37;8.90;;;-3.50;99.90;;;;;;5109888;28;20430;-64
2024/01/13 10:33:49;;;;;;;22.90;9.37;;;-3.30;99.90;;;;;;5115504;28;20422;-61
2024/01/13 10:36:22;;;;;;;23.97;9.80;;;-3.40;99.90;;;;;;5119016;28;20187;-64
2024/01/13 10:38:49;;;;;;;35.00;11.73;;;-3.40;99.90;;;;;;5099169;28;20420;-65
2024/01/13 10:41:15;;;;;;;31.20;11.30;;;-3.50;99.90;;;;;;5125428;28;20408;-65
2024/01/13 10:43:45;;;;;;;32.30;11.17;;;-3.40;99.90;;;;;;5111744;28;20406;-65
2024/01/13 10:46:13;;;;;;;34.90;12.00;;;-3.30;99.90;;;;;;5125190;28;20434;-65
2024/01/13 10:48:46;;;;;;;36.97;13.57;;;-3.30;99.90;;;;;;5110710;28;20426;-65
2024/01/13 10:51:24;;;;;;;35.67;16.37;;;-3.40;99.90;;;;;;5115820;28;20424;-65
2024/01/13 10:53:52;;;;;;;52.43;15.93;;;-3.20;99.90;;;;;;5103161;28;20474;-63
2024/01/13 10:56:19;;;;;;;40.03;15.00;;;-3.20;99.90;;;;;;5104805;28;20766;-65
2024/01/13 10:58:46;;;;;;;42.60;15.50;;;-3.30;99.90;;;;;;5110244;28;20421;-65
2024/01/13 11:01:11;;;;;;;20.70;8.83;;;-3.30;99.90;;;;;;5110409;28;20417;-65
2024/01/13 11:03:40;;;;;;;27.10;11.00;;;-3.20;99.90;;;;;;5105716;28;20425;-64
2024/01/13 11:06:05;;;;;;;24.23;8.50;;;-3.20;99.90;;;;;;5106952;28;20212;-64
2024/01/13 11:08:31;;;;;;;27.90;8.67;;;-3.40;99.90;;;;;;5110379;28;20824;-65
2024/01/13 11:10:58;;;;;;;25.20;9.57;;;-3.40;99.90;;;;;;5109712;28;20192;-65
2024/01/13 11:13:31;;;;;;;32.83;13.10;;;-3.30;99.90;;;;;;5108745;28;20188;-65
2024/01/13 11:16:06;;;;;;;35.23;13.53;;;-3.40;99.90;;;;;;5097611;28;20441;-65
2024/01/13 11:18:40;;;;;;;42.77;14.40;;;-3.30;99.90;;;;;;5122282;28;20424;-65
2024/01/13 11:21:08;;;;;;;50.47;17.90;;;-3.40;99.90;;;;;;5102090;28;20769;-65
2024/01/13 11:23:56;;;;;;;43.13;17.13;;;-3.40;99.90;;;;;;5113376;28;20437;-66
2024/01/13 11:26:32;;;;;;;47.93;18.10;;;-3.20;99.90;;;;;;5113546;28;20529;-66
2024/01/13 11:28:58;;;;;;;49.67;15.77;;;-3.00;99.90;;;;;;5108411;28;20433;-66
2024/01/13 11:31:40;;;;;;;46.53;15.87;;;-3.10;99.90;;;;;;5113962;28;20466;-66
2024/01/13 11:34:09;;;;;;;42.13;15.63;;;-3.10;99.90;;;;;;5112200;28;20180;-66
2024/01/13 11:36:39;;;;;;;40.55;17.30;;;-3.10;99.90;;;;;;5112295;28;20417;-64
2024/01/13 11:39:05;;;;;;;42.97;14.20;;;-3.10;99.90;;;;;;5113394;28;20184;-65
2024/01/13 11:41:51;;;;;;;47.97;17.60;;;-3.20;99.90;;;;;;5116696;27;20424;-65
2024/01/13 11:44:37;;;;;;;36.93;14.73;;;-3.20;99.90;;;;;;5121344;27;20460;-65
2024/01/13 11:47:04;;;;;;;39.73;15.20;;;-3.10;99.90;;;;;;5101653;28;20469;-64
2024/01/13 11:49:38;;;;;;;34.87;13.67;;;-3.20;99.90;;;;;;5113321;28;20430;-65
2024/01/13 11:52:11;;;;;;;38.30;15.17;;;-3.40;99.90;;;;;;5113699;28;20418;-65
2024/01/13 11:54:38;;;;;;;48.70;14.10;;;-3.50;99.90;;;;;;5109028;28;20409;-65
2024/01/13 11:57:16;;;;;;;47.87;15.23;;;-3.50;99.90;;;;;;5104553;28;20453;-64
2024/01/13 11:59:42;;;;;;;40.63;15.80;;;-3.50;99.90;;;;;;5113157;28;20441;-64
2024/01/13 12:02:08;;;;;;;37.43;13.80;;;-3.70;99.90;;;;;;5113552;28;20438;-64
2024/01/13 12:04:36;;;;;;;41.33;15.97;;;-3.60;99.90;;;;;;5106606;28;20300;-65
2024/01/13 12:07:05;;;;;;;35.20;14.40;;;-3.40;99.90;;;;;;5110910;28;20976;-65
2024/01/13 12:09:30;;;;;;;41.80;13.10;;;-3.30;99.90;;;;;;5099936;27;20453;-64
2024/01/13 12:12:02;;;;;;;34.40;12.50;;;-3.20;99.90;;;;;;5112847;28;20461;-64
2024/01/13 12:14:28;;;;;;;30.20;12.83;;;-3.40;99.90;;;;;;5091512;28;20556;-64
2024/01/13 12:16:55;;;;;;;28.83;12.93;;;-3.40;99.90;;;;;;5107241;28;20460;-64
2024/01/13 12:19:23;;;;;;;33.83;12.77;;;-3.50;99.90;;;;;;5108273;28;20418;-64
2024/01/13 12:21:48;;;;;;;33.80;13.77;;;-3.50;99.90;;;;;;5112897;28;20500;-64
2024/01/13 12:24:15;;;;;;;47.57;15.50;;;-3.40;99.90;;;;;;5112983;28;20540;-65